sensor_id;sensor_type;location;lat;lon;timestamp;pressure;altitude;pressure_sealevel;temperature;humidity
43691;BME280;29293;52.190;21.226;2023-06-22T00:06:33;100394.45;;;19.73;100.00
43691;BME280;29293;52.190;21.226;2023-06-22T00:41:24;100404.99;;;19.64;100.00
43691;BME280;29293;52.190;21.226;2023-06-22T01:19:41;100384.11;;;19.17;100.00
43691;BME280;29293;52.190;21.226;2023-06-22T01:34:51;100360.30;;;18.69;100.00
43691;BME280;29293;52.190;21.226;2023-06-22T01:49:58;100348.48;;;18.49;100.00
43691;BME280;29293;52.190;21.226;2023-06-22T02:05:08;100346.04;;;18.34;100.00
43691;BME280;29293;52.190;21.226;2023-06-22T02:20:16;100365.61;;;18.24;100.00
43691;BME280;29293;52.190;21.226;2023-06-22T02:35:23;100392.53;;;18.10;100.00
43691;BME280;29293;52.190;21.226;2023-06-22T02:50:30;100423.33;;;17.93;100.00
43691;BME280;29293;52.190;21.226;2023-06-22T03:05:37;100438.58;;;17.97;100.00
43691;BME280;29293;52.190;21.226;2023-06-22T03:20:44;100449.08;;;18.10;100.00
43691;BME280;29293;52.190;21.226;2023-06-22T03:35:51;100462.52;;;18.21;100.00
43691;BME280;29293;52.190;21.226;2023-06-22T03:51:01;100473.40;;;18.36;100.00
43691;BME280;29293;52.190;21.226;2023-06-22T04:06:08;100483.36;;;18.60;100.00
43691;BME280;29293;52.190;21.226;2023-06-22T04:21:15;100495.65;;;18.83;100.00
43691;BME280;29293;52.190;21.226;2023-06-22T04:36:25;100495.00;;;19.10;100.00
43691;BME280;29293;52.190;21.226;2023-06-22T04:51:37;100501.06;;;19.43;100.00
43691;BME280;29293;52.190;21.226;2023-06-22T05:06:44;100491.98;;;19.80;100.00
43691;BME280;29293;52.190;21.226;2023-06-22T05:21:52;100492.54;;;20.14;100.00
43691;BME280;29293;52.190;21.226;2023-06-22T05:37:04;100499.92;;;20.38;100.00
43691;BME280;29293;52.190;21.226;2023-06-22T05:52:15;100516.66;;;20.53;100.00
43691;BME280;29293;52.190;21.226;2023-06-22T06:07:24;100529.52;;;20.66;100.00
43691;BME280;29293;52.190;21.226;2023-06-22T06:22:32;100538.40;;;20.66;100.00
43691;BME280;29293;52.190;21.226;2023-06-22T06:37:42;100551.91;;;20.75;100.00
43691;BME280;29293;52.190;21.226;2023-06-22T06:52:50;100557.38;;;20.78;100.00
43691;BME280;29293;52.190;21.226;2023-06-22T07:07:57;100556.73;;;20.90;100.00
43691;BME280;29293;52.190;21.226;2023-06-22T07:23:05;100550.09;;;21.14;100.00
43691;BME280;29293;52.190;21.226;2023-06-22T07:38:14;100561.25;;;21.46;100.00
43691;BME280;29293;52.190;21.226;2023-06-22T07:53:22;100575.14;;;22.03;100.00
43691;BME280;29293;52.190;21.226;2023-06-22T08:08:31;100578.08;;;22.77;100.00
43691;BME280;29293;52.190;21.226;2023-06-22T08:23:38;100586.89;;;23.16;100.00
43691;BME280;29293;52.190;21.226;2023-06-22T08:38:46;100571.81;;;24.09;100.00
43691;BME280;29293;52.190;21.226;2023-06-22T08:53:56;100570.52;;;24.76;100.00
43691;BME280;29293;52.190;21.226;2023-06-22T09:39:23;100574.95;;;26.16;100.00
43691;BME280;29293;52.190;21.226;2023-06-22T09:54:30;100560.22;;;26.68;100.00
43691;BME280;29293;52.190;21.226;2023-06-22T10:09:37;100563.23;;;26.98;100.00
43691;BME280;29293;52.190;21.226;2023-06-22T10:24:46;100565.68;;;27.34;100.00
43691;BME280;29293;52.190;21.226;2023-06-22T10:39:53;100553.27;;;27.87;100.00
43691;BME280;29293;52.190;21.226;2023-06-22T10:55:00;100545.89;;;28.18;100.00
43691;BME280;29293;52.190;21.226;2023-06-22T11:10:06;100534.49;;;28.27;100.00
43691;BME280;29293;52.190;21.226;2023-06-22T11:25:13;100526.36;;;28.62;100.00
43691;BME280;29293;52.190;21.226;2023-06-22T11:40:20;100522.63;;;28.84;100.00
43691;BME280;29293;52.190;21.226;2023-06-22T11:55:28;100517.47;;;28.91;100.00
43691;BME280;29293;52.190;21.226;2023-06-22T12:10:35;100522.02;;;29.11;100.00
43691;BME280;29293;52.190;21.226;2023-06-22T12:25:42;100516.89;;;29.11;100.00
43691;BME280;29293;52.190;21.226;2023-06-22T12:40:48;100510.17;;;29.26;100.00
43691;BME280;29293;52.190;21.226;2023-06-22T12:55:55;100501.14;;;29.30;97.68
43691;BME280;29293;52.190;21.226;2023-06-22T13:11:02;100502.79;;;29.15;76.28
43691;BME280;29293;52.190;21.226;2023-06-22T13:26:09;100499.36;;;29.08;74.46
43691;BME280;29293;52.190;21.226;2023-06-22T13:41:16;100502.20;;;29.19;71.39
43691;BME280;29293;52.190;21.226;2023-06-22T13:56:23;100503.18;;;29.20;66.79
43691;BME280;29293;52.190;21.226;2023-06-22T14:11:30;100493.31;;;29.42;65.30
43691;BME280;29293;52.190;21.226;2023-06-22T14:26:37;100487.58;;;29.31;66.56
43691;BME280;29293;52.190;21.226;2023-06-22T14:41:43;100483.49;;;28.98;65.91
43691;BME280;29293;52.190;21.226;2023-06-22T14:56:49;100482.50;;;28.64;67.71
43691;BME280;29293;52.190;21.226;2023-06-22T15:11:55;100476.70;;;28.38;67.43
43691;BME280;29293;52.190;21.226;2023-06-22T15:27:03;100476.28;;;27.81;67.69
43691;BME280;29293;52.190;21.226;2023-06-22T15:42:11;100479.98;;;27.19;69.64
43691;BME280;29293;52.190;21.226;2023-06-22T15:57:17;100470.95;;;26.81;71.70
43691;BME280;29293;52.190;21.226;2023-06-22T16:12:24;100470.55;;;26.44;72.70
43691;BME280;29293;52.190;21.226;2023-06-22T16:27:32;100463.88;;;26.13;73.91
43691;BME280;29293;52.190;21.226;2023-06-22T16:42:39;100462.86;;;25.75;77.51
43691;BME280;29293;52.190;21.226;2023-06-22T16:57:46;100459.20;;;25.38;77.49
43691;BME280;29293;52.190;21.226;2023-06-22T17:12:56;100452.84;;;25.05;77.96
43691;BME280;29293;52.190;21.226;2023-06-22T17:28:03;100445.05;;;24.63;81.29
43691;BME280;29293;52.190;21.226;2023-06-22T17:43:12;100437.02;;;24.27;80.59
43691;BME280;29293;52.190;21.226;2023-06-22T17:58:19;100432.27;;;23.90;80.32
43691;BME280;29293;52.190;21.226;2023-06-22T18:13:28;100430.83;;;23.58;81.60
43691;BME280;29293;52.190;21.226;2023-06-22T18:28:36;100431.67;;;23.24;84.91
43691;BME280;29293;52.190;21.226;2023-06-22T18:43:44;100427.11;;;22.65;89.21
43691;BME280;29293;52.190;21.226;2023-06-22T18:59:00;100430.70;;;21.95;97.10
43691;BME280;29293;52.190;21.226;2023-06-22T19:14:08;100445.66;;;21.38;100.00
43691;BME280;29293;52.190;21.226;2023-06-22T19:29:16;100458.90;;;20.95;100.00
43691;BME280;29293;52.190;21.226;2023-06-22T19:44:29;100451.55;;;20.48;100.00
43691;BME280;29293;52.190;21.226;2023-06-22T19:59:39;100441.98;;;20.07;100.00
43691;BME280;29293;52.190;21.226;2023-06-22T20:14:49;100432.67;;;19.68;100.00
43691;BME280;29293;52.190;21.226;2023-06-22T20:29:58;100426.06;;;19.30;100.00
43691;BME280;29293;52.190;21.226;2023-06-22T20:45:17;100409.44;;;18.85;100.00
43691;BME280;29293;52.190;21.226;2023-06-22T21:00:24;100398.71;;;18.44;100.00
43691;BME280;29293;52.190;21.226;2023-06-22T21:15:33;100403.59;;;18.09;100.00
43691;BME280;29293;52.190;21.226;2023-06-22T21:30:42;100394.95;;;17.79;100.00
43691;BME280;29293;52.190;21.226;2023-06-22T21:45:57;100393.55;;;17.62;100.00
43691;BME280;29293;52.190;21.226;2023-06-22T22:01:08;100386.96;;;17.50;100.00
43691;BME280;29293;52.190;21.226;2023-06-22T22:16:15;100395.83;;;17.48;100.00
43691;BME280;29293;52.190;21.226;2023-06-22T22:31:22;100414.71;;;17.33;100.00
43691;BME280;29293;52.190;21.226;2023-06-22T22:46:29;100410.36;;;17.11;100.00
43691;BME280;29293;52.190;21.226;2023-06-22T23:01:36;100415.83;;;16.96;100.00
43691;BME280;29293;52.190;21.226;2023-06-22T23:16:46;100407.20;;;16.77;100.00
43691;BME280;29293;52.190;21.226;2023-06-22T23:31:55;100390.86;;;16.52;100.00
43691;BME280;29293;52.190;21.226;2023-06-22T23:47:03;100362.55;;;16.31;100.00
